Time;durP1;ratioP1;P1;durP2;ratioP2;P2;SDS_P1;SDS_P2;PMS_P1;PMS_P2;Temp;Humidity;BMP_temperature;BMP_pressure;BME280_temperature;BME280_humidity;BME280_pressure;Samples;Min_cycle;Max_cycle;Signal;HPM_P1;HPM_P2
2023/07/01 00:02:09;;;;;;;1.08;0.98;;;;;;;;;;4968343;28;20042;-76
2023/07/01 00:04:35;;;;;;;2.20;1.13;;;;;;;;;;4969401;28;20069;-77
2023/07/01 00:07:00;;;;;;;2.38;1.20;;;;;;;;;;4962580;28;20038;-77
2023/07/01 00:09:25;;;;;;;1.30;1.20;;;;;;;;;;4964925;28;20053;-77
2023/07/01 00:11:51;;;;;;;1.15;1.05;;;;;;;;;;4973147;28;20081;-78
2023/07/01 00:14:17;;;;;;;2.78;1.20;;;;;;;;;;4990997;28;20567;-77
2023/07/01 00:16:42;;;;;;;1.27;1.00;;;;;;;;;;4982875;28;20595;-76
2023/07/01 00:19:07;;;;;;;2.03;1.20;;;;;;;;;;4984440;28;20072;-77
2023/07/01 00:21:33;;;;;;;1.10;1.00;;;;;;;;;;4972008;28;20046;-75
2023/07/01 00:23:58;;;;;;;1.80;1.10;;;;;;;;;;4989444;28;20061;-77
2023/07/01 00:26:25;;;;;;;1.88;1.70;;;;;;;;;;4983716;28;20517;-77
2023/07/01 00:28:52;;;;;;;1.77;1.50;;;;;;;;;;4971980;28;20077;-77
2023/07/01 00:31:18;;;;;;;1.13;1.02;;;;;;;;;;4965489;28;20047;-75
2023/07/01 00:33:43;;;;;;;1.70;1.10;;;;;;;;;;4985865;28;20030;-76
2023/07/01 00:36:09;;;;;;;2.10;1.10;;;;;;;;;;4978862;28;20042;-77
2023/07/01 00:38:34;;;;;;;1.30;1.20;;;;;;;;;;4976030;28;20125;-75
2023/07/01 00:40:59;;;;;;;2.70;1.00;;;;;;;;;;4977579;28;20052;-76
2023/07/01 00:43:25;;;;;;;1.27;0.95;;;;;;;;;;4970540;28;20049;-76
2023/07/01 00:45:50;;;;;;;1.10;1.10;;;;;;;;;;4986690;28;20061;-77
2023/07/01 00:48:24;;;;;;;3.10;1.40;;;;;;;;;;4989445;28;20060;-77
2023/07/01 00:50:49;;;;;;;1.33;1.23;;;;;;;;;;4964355;28;20053;-77
2023/07/01 00:53:16;;;;;;;1.35;1.25;;;;;;;;;;4993922;28;20030;-77
2023/07/01 00:55:41;;;;;;;1.10;1.00;;;;;;;;;;4995186;28;20052;-78
2023/07/01 00:58:06;;;;;;;3.05;1.65;;;;;;;;;;4981029;28;20058;-77
2023/07/01 01:00:32;;;;;;;1.30;1.20;;;;;;;;;;4982412;28;20518;-75
2023/07/01 01:03:14;;;;;;;1.20;1.00;;;;;;;;;;4960129;28;20076;-77
2023/07/01 01:05:47;;;;;;;1.60;1.42;;;;;;;;;;4983943;28;20667;-76
2023/07/01 01:08:28;;;;;;;1.48;1.00;;;;;;;;;;4994043;28;20046;-76
2023/07/01 01:10:57;;;;;;;1.10;0.90;;;;;;;;;;4986786;28;20557;-77
2023/07/01 01:13:24;;;;;;;1.58;1.02;;;;;;;;;;4967375;28;20404;-76
2023/07/01 01:15:50;;;;;;;2.13;1.42;;;;;;;;;;4988271;28;20585;-77
2023/07/01 01:18:17;;;;;;;1.50;1.40;;;;;;;;;;4975804;28;20049;-74
2023/07/01 01:20:43;;;;;;;3.65;1.60;;;;;;;;;;4994319;28;20485;-77
2023/07/01 01:23:13;;;;;;;2.60;1.40;;;;;;;;;;4990161;28;20529;-77
2023/07/01 01:25:47;;;;;;;1.90;1.20;;;;;;;;;;4993510;28;20177;-76
2023/07/01 01:28:13;;;;;;;1.73;1.20;;;;;;;;;;4955677;28;20300;-77
2023/07/01 01:30:38;;;;;;;2.42;1.20;;;;;;;;;;4996146;28;20061;-75
2023/07/01 01:33:03;;;;;;;3.28;1.58;;;;;;;;;;4989656;28;20037;-78
2023/07/01 01:35:29;;;;;;;1.40;1.30;;;;;;;;;;4995398;28;20046;-77
2023/07/01 01:37:59;;;;;;;1.60;1.35;;;;;;;;;;4984230;28;20750;-77
2023/07/01 01:40:40;;;;;;;1.90;1.60;;;;;;;;;;4996682;28;20034;-77
2023/07/01 01:43:10;;;;;;;;;;;;;;;;;;4964668;28;20458;-76
2023/07/01 01:45:37;;;;;;;0.98;0.88;;;;;;;;;;4989341;28;19917;-76
2023/07/01 01:48:04;;;;;;;1.17;1.08;;;;;;;;;;4975132;28;20050;-76
2023/07/01 01:50:32;;;;;;;2.63;1.50;;;;;;;;;;4992156;28;20042;-76
2023/07/01 01:53:01;;;;;;;1.10;1.10;;;;;;;;;;4998811;28;20046;-76
2023/07/01 01:55:27;;;;;;;1.30;1.20;;;;;;;;;;4976967;28;20046;-76
2023/07/01 01:57:53;;;;;;;1.20;1.10;;;;;;;;;;4989068;28;20041;-75
2023/07/01 02:00:19;;;;;;;1.52;1.10;;;;;;;;;;4974317;28;20051;-77
2023/07/01 02:02:44;;;;;;;1.67;1.50;;;;;;;;;;4969266;28;20108;-77
2023/07/01 02:05:10;;;;;;;1.70;1.42;;;;;;;;;;4985471;28;20038;-74
2023/07/01 02:07:35;;;;;;;3.20;1.27;;;;;;;;;;4976836;28;20044;-76
2023/07/01 02:10:01;;;;;;;1.48;1.38;;;;;;;;;;4954309;28;20093;-77
2023/07/01 02:12:26;;;;;;;1.05;1.05;;;;;;;;;;4984082;28;20034;-76
2023/07/01 02:14:52;;;;;;;3.13;1.25;;;;;;;;;;4984566;28;20042;-74
2023/07/01 02:17:17;;;;;;;3.53;1.63;;;;;;;;;;4964563;28;20666;-78
2023/07/01 02:19:43;;;;;;;2.28;1.30;;;;;;;;;;4978997;28;20092;-75
2023/07/01 02:22:08;;;;;;;3.28;1.25;;;;;;;;;;4974914;28;20026;-78
2023/07/01 02:24:33;;;;;;;1.17;1.00;;;;;;;;;;4991995;28;20041;-77
2023/07/01 02:26:59;;;;;;;1.00;1.00;;;;;;;;;;4984880;28;20133;-78
2023/07/01 02:29:24;;;;;;;2.55;1.27;;;;;;;;;;4985673;28;20038;-78
2023/07/01 02:31:50;;;;;;;1.83;1.30;;;;;;;;;;4987979;28;20065;-76
2023/07/01 02:34:15;;;;;;;1.42;1.23;;;;;;;;;;4986523;28;20030;-77
2023/07/01 02:36:43;;;;;;;1.25;1.15;;;;;;;;;;4985756;28;20042;-76
2023/07/01 02:39:09;;;;;;;2.38;1.33;;;;;;;;;;4980984;28;20062;-76
2023/07/01 02:41:34;;;;;;;1.20;1.10;;;;;;;;;;4968859;28;20039;-76
2023/07/01 02:43:59;;;;;;;2.80;1.10;;;;;;;;;;4976957;28;20053;-77
2023/07/01 02:46:27;;;;;;;1.45;1.10;;;;;;;;;;4984203;28;20041;-75
2023/07/01 02:48:52;;;;;;;2.10;1.40;;;;;;;;;;4990365;28;20034;-77
2023/07/01 02:51:17;;;;;;;1.85;1.50;;;;;;;;;;4954646;28;20158;-75
2023/07/01 02:53:43;;;;;;;1.58;1.25;;;;;;;;;;4986069;28;20391;-76
2023/07/01 02:56:08;;;;;;;1.42;1.20;;;;;;;;;;4980124;28;20038;-76
2023/07/01 02:58:33;;;;;;;2.13;1.50;;;;;;;;;;4982911;28;20034;-77
2023/07/01 03:00:59;;;;;;;2.05;1.80;;;;;;;;;;4991707;28;20046;-77
2023/07/01 03:03:24;;;;;;;1.58;1.48;;;;;;;;;;4984557;28;20034;-74
2023/07/01 03:05:50;;;;;;;1.80;1.42;;;;;;;;;;4967829;28;20038;-77
2023/07/01 03:08:15;;;;;;;2.75;1.52;;;;;;;;;;4981655;28;20117;-76
2023/07/01 03:10:40;;;;;;;2.38;1.45;;;;;;;;;;4976621;28;20033;-77
2023/07/01 03:13:06;;;;;;;4.07;1.85;;;;;;;;;;4970882;28;20070;-76
2023/07/01 03:15:31;;;;;;;6.72;3.47;;;;;;;;;;4969424;28;20067;-75
2023/07/01 03:17:57;;;;;;;8.57;3.55;;;;;;;;;;4956463;28;20054;-76
2023/07/01 03:20:25;;;;;;;6.07;2.53;;;;;;;;;;4982785;28;20089;-76
2023/07/01 03:22:51;;;;;;;6.45;3.45;;;;;;;;;;4983633;28;20034;-77
2023/07/01 03:25:17;;;;;;;5.97;3.33;;;;;;;;;;4981851;28;20097;-77
2023/07/01 03:27:43;;;;;;;7.80;3.30;;;;;;;;;;4967290;28;20058;-75
2023/07/01 03:30:13;;;;;;;6.32;3.40;;;;;;;;;;4970265;28;20376;-74
2023/07/01 03:32:43;;;;;;;6.13;2.85;;;;;;;;;;4980585;28;20042;-75
2023/07/01 03:35:09;;;;;;;12.40;3.92;;;;;;;;;;4993911;28;20590;-77
2023/07/01 03:37:36;;;;;;;5.53;3.70;;;;;;;;;;4983179;28;20038;-77
2023/07/01 03:40:02;;;;;;;2.72;2.47;;;;;;;;;;4961604;28;20201;-75
2023/07/01 03:42:27;;;;;;;1.67;1.55;;;;;;;;;;4979252;28;20062;-77
2023/07/01 03:44:52;;;;;;;1.80;1.70;;;;;;;;;;4957153;28;20038;-77
2023/07/01 03:47:18;;;;;;;4.13;2.92;;;;;;;;;;4963349;28;20042;-73
2023/07/01 03:49:43;;;;;;;4.72;2.35;;;;;;;;;;4984914;28;20137;-77
2023/07/01 03:52:09;;;;;;;4.85;2.03;;;;;;;;;;4981735;28;20160;-77
2023/07/01 03:54:35;;;;;;;2.67;2.30;;;;;;;;;;4982136;28;20037;-74
2023/07/01 03:57:00;;;;;;;6.97;3.05;;;;;;;;;;4982774;28;20045;-77
2023/07/01 03:59:25;;;;;;;4.18;3.35;;;;;;;;;;4987632;28;20406;-77
2023/07/01 04:01:51;;;;;;;6.70;4.20;;;;;;;;;;4971385;28;20065;-77
2023/07/01 04:04:16;;;;;;;7.72;3.25;;;;;;;;;;4977376;28;20132;-77
2023/07/01 04:06:42;;;;;;;7.28;3.92;;;;;;;;;;4981861;28;20045;-75
2023/07/01 04:09:12;;;;;;;5.85;3.70;;;;;;;;;;4989262;28;20030;-77
2023/07/01 04:11:38;;;;;;;6.70;3.70;;;;;;;;;;4984456;28;20037;-77
2023/07/01 04:14:04;;;;;;;5.57;2.83;;;;;;;;;;4960535;28;20042;-77
2023/07/01 04:16:29;;;;;;;3.63;2.63;;;;;;;;;;4943911;28;20041;-75
2023/07/01 04:18:56;;;;;;;5.28;3.47;;;;;;;;;;4972319;28;20034;-75
2023/07/01 04:21:22;;;;;;;1.35;1.25;;;;;;;;;;4987814;28;20031;-76
2023/07/01 04:23:47;;;;;;;4.05;3.17;;;;;;;;;;4976966;28;20502;-75
2023/07/01 04:26:12;;;;;;;6.30;3.95;;;;;;;;;;4981414;28;20122;-76
2023/07/01 04:28:38;;;;;;;4.03;2.92;;;;;;;;;;4972290;28;20457;-76
2023/07/01 04:31:03;;;;;;;5.85;3.78;;;;;;;;;;4991412;28;20128;-77
2023/07/01 04:33:29;;;;;;;2.72;2.28;;;;;;;;;;4969259;28;20030;-77
2023/07/01 04:35:54;;;;;;;6.25;3.53;;;;;;;;;;4983540;28;20034;-75
2023/07/01 04:38:19;;;;;;;8.45;3.85;;;;;;;;;;4969203;28;20038;-77
2023/07/01 04:40:45;;;;;;;5.80;3.50;;;;;;;;;;4965423;28;20527;-76
2023/07/01 04:43:10;;;;;;;6.70;3.67;;;;;;;;;;4936037;28;20039;-77
2023/07/01 04:45:36;;;;;;;8.13;3.83;;;;;;;;;;4974131;28;20038;-77
2023/07/01 04:48:01;;;;;;;6.68;3.85;;;;;;;;;;4979876;28;20411;-75
2023/07/01 04:50:26;;;;;;;7.57;4.45;;;;;;;;;;4970004;28;20050;-75
2023/07/01 04:52:52;;;;;;;7.68;4.05;;;;;;;;;;4982131;28;20494;-74
2023/07/01 04:55:18;;;;;;;9.45;4.35;;;;;;;;;;4984866;28;20105;-78
2023/07/01 04:57:44;;;;;;;5.10;3.53;;;;;;;;;;4967081;28;20041;-76
2023/07/01 05:00:10;;;;;;;4.53;3.55;;;;;;;;;;4986456;28;20046;-78
2023/07/01 05:02:36;;;;;;;6.38;4.47;;;;;;;;;;4991653;28;20038;-78
2023/07/01 05:05:02;;;;;;;4.35;3.80;;;;;;;;;;5000114;28;20032;-77
2023/07/01 05:07:28;;;;;;;5.43;3.60;;;;;;;;;;4973094;28;20118;-78
2023/07/01 05:09:53;;;;;;;6.38;4.15;;;;;;;;;;4975044;28;20026;-75
2023/07/01 05:12:18;;;;;;;4.88;4.30;;;;;;;;;;4965819;28;20097;-77
2023/07/01 05:14:44;;;;;;;3.00;2.70;;;;;;;;;;4981901;28;20882;-76
2023/07/01 05:17:09;;;;;;;5.30;3.17;;;;;;;;;;4982305;28;20050;-77
2023/07/01 05:19:34;;;;;;;6.63;4.55;;;;;;;;;;4990429;28;20057;-76
2023/07/01 05:22:00;;;;;;;6.72;3.60;;;;;;;;;;4982146;28;20042;-75
2023/07/01 05:24:25;;;;;;;3.92;3.35;;;;;;;;;;4965609;28;20115;-77
2023/07/01 05:26:51;;;;;;;3.88;3.17;;;;;;;;;;4975672;28;20046;-76
2023/07/01 05:29:17;;;;;;;4.43;3.45;;;;;;;;;;4962535;28;20074;-76
2023/07/01 05:31:43;;;;;;;4.03;3.67;;;;;;;;;;4971577;28;20047;-76
2023/07/01 05:34:10;;;;;;;3.60;2.72;;;;;;;;;;4977464;28;20030;-77
2023/07/01 05:36:36;;;;;;;4.93;3.42;;;;;;;;;;4959965;28;20038;-75
2023/07/01 05:39:03;;;;;;;3.33;2.92;;;;;;;;;;4950789;28;20451;-76
2023/07/01 05:41:29;;;;;;;4.13;3.72;;;;;;;;;;4958431;28;20038;-77
2023/07/01 05:43:55;;;;;;;5.18;3.42;;;;;;;;;;4960403;28;20041;-77
2023/07/01 05:46:20;;;;;;;13.20;4.07;;;;;;;;;;4968680;28;20462;-76
2023/07/01 05:48:46;;;;;;;3.65;2.20;;;;;;;;;;4981227;28;20049;-75
2023/07/01 05:51:11;;;;;;;5.97;3.83;;;;;;;;;;4979902;28;20030;-77
2023/07/01 05:53:36;;;;;;;3.65;2.92;;;;;;;;;;4972270;28;20058;-76
2023/07/01 05:56:02;;;;;;;4.05;2.72;;;;;;;;;;4978674;28;20043;-76
2023/07/01 05:58:27;;;;;;;5.00;2.78;;;;;;;;;;4974689;28;20121;-75
2023/07/01 06:00:53;;;;;;;7.38;3.60;;;;;;;;;;4982936;28;20038;-76
2023/07/01 06:03:18;;;;;;;2.78;2.58;;;;;;;;;;4963970;28;20053;-76
2023/07/01 06:05:43;;;;;;;3.20;2.90;;;;;;;;;;4945882;28;20417;-76
2023/07/01 06:08:09;;;;;;;5.00;3.53;;;;;;;;;;4957769;28;20042;-76
2023/07/01 06:10:34;;;;;;;3.42;3.13;;;;;;;;;;4971475;28;20039;-76
2023/07/01 06:12:59;;;;;;;3.80;3.22;;;;;;;;;;4991865;28;20522;-77
2023/07/01 06:15:25;;;;;;;4.72;3.20;;;;;;;;;;4988703;28;20069;-76
2023/07/01 06:17:50;;;;;;;6.43;4.13;;;;;;;;;;4978908;28;20049;-76
2023/07/01 06:20:16;;;;;;;3.78;2.80;;;;;;;;;;4979462;28;20082;-76
2023/07/01 06:22:41;;;;;;;3.83;3.17;;;;;;;;;;4975028;28;20050;-76
2023/07/01 06:25:10;;;;;;;3.38;2.45;;;;;;;;;;4986523;28;20038;-76
2023/07/01 06:27:36;;;;;;;2.97;2.10;;;;;;;;;;4990243;28;20204;-76
2023/07/01 06:30:03;;;;;;;4.35;2.97;;;;;;;;;;4988652;28;20166;-78
2023/07/01 06:32:28;;;;;;;1.90;1.80;;;;;;;;;;4994960;28;20041;-78
2023/07/01 06:34:54;;;;;;;4.88;2.95;;;;;;;;;;4969164;28;20121;-75
2023/07/01 06:37:19;;;;;;;2.55;2.00;;;;;;;;;;4969543;28;20062;-77
2023/07/01 06:39:45;;;;;;;4.07;2.58;;;;;;;;;;4966264;28;20051;-77
2023/07/01 06:42:12;;;;;;;5.53;3.00;;;;;;;;;;4976952;28;20034;-76
2023/07/01 06:44:37;;;;;;;3.20;2.53;;;;;;;;;;4987899;28;20877;-77
2023/07/01 06:47:03;;;;;;;2.60;2.20;;;;;;;;;;4998676;28;20046;-75
2023/07/01 06:49:29;;;;;;;3.97;2.67;;;;;;;;;;4977470;28;20065;-77
2023/07/01 06:51:54;;;;;;;2.15;2.05;;;;;;;;;;4949035;28;20054;-76
2023/07/01 06:54:20;;;;;;;2.90;2.45;;;;;;;;;;4988240;28;20034;-77
2023/07/01 06:56:45;;;;;;;3.40;2.30;;;;;;;;;;4986312;28;20128;-80
2023/07/01 06:59:10;;;;;;;5.10;3.00;;;;;;;;;;4987648;28;20042;-77
2023/07/01 07:01:36;;;;;;;3.72;2.67;;;;;;;;;;4989081;28;20050;-75
2023/07/01 07:04:02;;;;;;;3.20;2.65;;;;;;;;;;4962422;28;20068;-77
2023/07/01 07:06:27;;;;;;;2.78;2.58;;;;;;;;;;4978099;28;20041;-77
2023/07/01 07:08:52;;;;;;;4.43;2.65;;;;;;;;;;4971638;28;20030;-79
2023/07/01 07:11:18;;;;;;;4.50;2.05;;;;;;;;;;4986983;28;20041;-77
2023/07/01 07:13:43;;;;;;;1.73;1.63;;;;;;;;;;4953433;28;20046;-76
2023/07/01 07:16:09;;;;;;;2.60;2.08;;;;;;;;;;4992209;28;20574;-78
2023/07/01 07:18:34;;;;;;;2.13;2.00;;;;;;;;;;4974470;28;20045;-77
2023/07/01 07:20:59;;;;;;;3.05;2.40;;;;;;;;;;4969742;28;20522;-76
2023/07/01 07:23:25;;;;;;;2.47;2.28;;;;;;;;;;4984983;28;20038;-78
2023/07/01 07:25:50;;;;;;;3.85;2.55;;;;;;;;;;4973669;28;20100;-76
2023/07/01 07:28:16;;;;;;;3.67;2.65;;;;;;;;;;4977008;28;20053;-77
2023/07/01 07:30:42;;;;;;;2.80;2.35;;;;;;;;;;4968874;28;20051;-78
2023/07/01 07:33:07;;;;;;;2.60;2.40;;;;;;;;;;4959986;28;20042;-76
2023/07/01 07:35:33;;;;;;;3.63;2.58;;;;;;;;;;4988944;28;20046;-78
2023/07/01 07:37:58;;;;;;;2.67;1.90;;;;;;;;;;4988353;28;20038;-77
2023/07/01 07:40:23;;;;;;;2.80;1.92;;;;;;;;;;4982789;28;20129;-76
2023/07/01 07:42:53;;;;;;;3.13;2.80;;;;;;;;;;4990003;28;20173;-78
2023/07/01 07:45:22;;;;;;;4.68;2.47;;;;;;;;;;4971954;28;20148;-77
2023/07/01 07:47:48;;;;;;;3.67;2.70;;;;;;;;;;4971665;28;20034;-78
2023/07/01 07:50:13;;;;;;;3.17;2.60;;;;;;;;;;4976238;28;20034;-77
2023/07/01 07:52:39;;;;;;;2.40;2.20;;;;;;;;;;4984248;28;20041;-77
2023/07/01 07:55:05;;;;;;;4.78;2.53;;;;;;;;;;4985854;28;20030;-77
2023/07/01 07:57:30;;;;;;;4.15;2.47;;;;;;;;;;4971802;28;20050;-76
2023/07/01 07:59:55;;;;;;;3.50;3.05;;;;;;;;;;4987410;28;20045;-78
2023/07/01 08:02:21;;;;;;;3.25;2.47;;;;;;;;;;4980997;28;20039;-78
2023/07/01 08:04:47;;;;;;;2.80;2.45;;;;;;;;;;4969811;28;20042;-78
2023/07/01 08:07:13;;;;;;;2.67;2.47;;;;;;;;;;4978776;28;20117;-78
2023/07/01 08:09:38;;;;;;;5.07;2.55;;;;;;;;;;4959851;28;20042;-76
2023/07/01 08:12:04;;;;;;;3.10;2.20;;;;;;;;;;4988687;28;20117;-78
2023/07/01 08:14:30;;;;;;;3.72;2.47;;;;;;;;;;4980608;28;20068;-78
2023/07/01 08:16:57;;;;;;;5.10;2.15;;;;;;;;;;4977800;28;20038;-77
2023/07/01 08:19:23;;;;;;;1.83;1.73;;;;;;;;;;4961200;28;20546;-77
2023/07/01 08:21:49;;;;;;;2.13;1.80;;;;;;;;;;4985106;28;20068;-78
2023/07/01 08:24:15;;;;;;;2.28;1.90;;;;;;;;;;4971014;28;20577;-76
2023/07/01 08:26:40;;;;;;;3.05;2.20;;;;;;;;;;4977486;28;20053;-78
2023/07/01 08:29:09;;;;;;;3.28;2.00;;;;;;;;;;4982354;28;20464;-77
2023/07/01 08:31:36;;;;;;;2.67;2.00;;;;;;;;;;4947218;28;20038;-76
2023/07/01 08:34:02;;;;;;;3.85;2.00;;;;;;;;;;4970929;28;20037;-77
2023/07/01 08:36:28;;;;;;;3.72;2.17;;;;;;;;;;4981344;28;20513;-78
2023/07/01 08:38:53;;;;;;;2.67;2.05;;;;;;;;;;4978231;28;20054;-78
2023/07/01 08:41:23;;;;;;;2.60;2.05;;;;;;;;;;4962002;28;20081;-76
2023/07/01 08:43:51;;;;;;;3.25;2.08;;;;;;;;;;4982416;28;20101;-78
2023/07/01 08:46:19;;;;;;;2.83;2.00;;;;;;;;;;4981323;28;20042;-77
2023/07/01 08:48:46;;;;;;;1.63;1.52;;;;;;;;;;4986294;28;20514;-77
2023/07/01 08:51:30;;;;;;;4.97;2.08;;;;;;;;;;4985369;28;20042;-77
2023/07/01 08:53:59;;;;;;;3.50;1.55;;;;;;;;;;4976576;28;20054;-78
2023/07/01 08:56:24;;;;;;;2.13;1.50;;;;;;;;;;4987899;28;20110;-78
2023/07/01 08:58:50;;;;;;;2.20;1.63;;;;;;;;;;4987923;28;20157;-77
2023/07/01 09:01:16;;;;;;;1.50;1.40;;;;;;;;;;4975536;28;20526;-79
2023/07/01 09:03:42;;;;;;;2.05;1.75;;;;;;;;;;4973266;28;20491;-79
2023/07/01 09:06:08;;;;;;;2.00;1.90;;;;;;;;;;4986558;28;20073;-78
2023/07/01 09:08:40;;;;;;;1.85;1.73;;;;;;;;;;4992552;28;20043;-79
2023/07/01 09:11:09;;;;;;;1.30;1.30;;;;;;;;;;4987618;28;20808;-79
2023/07/01 09:13:35;;;;;;;3.00;1.67;;;;;;;;;;4989350;28;20038;-78
2023/07/01 09:16:00;;;;;;;2.75;1.70;;;;;;;;;;4991810;28;20169;-79
2023/07/01 09:18:30;;;;;;;2.63;1.67;;;;;;;;;;4994528;28;20403;-78
2023/07/01 09:20:57;;;;;;;1.60;1.48;;;;;;;;;;4959218;28;20058;-77
2023/07/01 09:23:29;;;;;;;3.80;1.40;;;;;;;;;;4958295;28;20038;-79
2023/07/01 09:26:15;;;;;;;2.38;1.70;;;;;;;;;;4966455;28;20054;-78
2023/07/01 09:28:43;;;;;;;3.40;1.70;;;;;;;;;;4977786;28;20154;-77
2023/07/01 09:31:11;;;;;;;1.60;0.95;;;;;;;;;;4961932;28;20742;-76
2023/07/01 09:33:38;;;;;;;1.92;1.20;;;;;;;;;;4969873;28;20038;-79
2023/07/01 09:36:04;;;;;;;2.13;1.40;;;;;;;;;;4979622;28;20033;-79
2023/07/01 09:38:30;;;;;;;2.08;1.65;;;;;;;;;;4973308;28;20042;-79
2023/07/01 09:41:12;;;;;;;1.90;1.17;;;;;;;;;;4993613;28;20394;-79
2023/07/01 09:43:37;;;;;;;1.75;1.20;;;;;;;;;;4979008;28;20090;-77
2023/07/01 09:46:03;;;;;;;2.55;1.50;;;;;;;;;;4986369;28;20062;-76
2023/07/01 09:48:28;;;;;;;1.90;1.40;;;;;;;;;;4991568;28;20684;-78
2023/07/01 09:51:00;;;;;;;4.10;1.70;;;;;;;;;;4994571;28;20108;-78
2023/07/01 09:53:31;;;;;;;3.15;1.63;;;;;;;;;;4960360;28;20062;-79
2023/07/01 09:55:57;;;;;;;2.70;1.50;;;;;;;;;;4962613;28;20038;-78
2023/07/01 09:58:22;;;;;;;1.85;1.30;;;;;;;;;;4970550;28;20431;-78
2023/07/01 10:00:48;;;;;;;3.90;1.58;;;;;;;;;;4959764;28;20047;-80
2023/07/01 10:03:14;;;;;;;3.30;1.55;;;;;;;;;;4983660;28;20058;-79
2023/07/01 10:05:43;;;;;;;2.40;1.80;;;;;;;;;;4980987;28;20034;-78
2023/07/01 10:08:08;;;;;;;1.63;1.52;;;;;;;;;;4970118;28;20047;-79
2023/07/01 10:10:33;;;;;;;3.25;1.63;;;;;;;;;;4960870;28;20039;-77
2023/07/01 10:13:01;;;;;;;2.58;1.92;;;;;;;;;;4996066;28;20096;-79
2023/07/01 10:15:32;;;;;;;1.55;1.30;;;;;;;;;;4985155;28;20042;-79
2023/07/01 10:17:57;;;;;;;3.70;1.83;;;;;;;;;;4982460;28;20057;-79
2023/07/01 10:20:26;;;;;;;2.08;1.63;;;;;;;;;;4975134;28;20050;-79
2023/07/01 10:22:58;;;;;;;2.85;1.73;;;;;;;;;;4965641;28;20125;-79
2023/07/01 10:25:37;;;;;;;1.65;1.30;;;;;;;;;;4981527;28;20050;-79
2023/07/01 10:28:05;;;;;;;3.45;1.95;;;;;;;;;;4962217;28;20035;-79
2023/07/01 10:30:53;;;;;;;1.88;1.50;;;;;;;;;;4950345;28;20510;-79
2023/07/01 10:33:30;;;;;;;3.17;1.98;;;;;;;;;;4960725;28;20057;-77
2023/07/01 10:36:02;;;;;;;3.05;2.15;;;;;;;;;;4988845;28;20062;-80
2023/07/01 10:38:30;;;;;;;3.30;1.80;;;;;;;;;;4983314;28;20030;-78
2023/07/01 10:40:56;;;;;;;3.42;2.03;;;;;;;;;;4975315;28;20100;-80
2023/07/01 10:43:23;;;;;;;2.97;1.90;;;;;;;;;;4967462;28;20042;-78
2023/07/01 10:46:10;;;;;;;2.58;1.80;;;;;;;;;;4979922;28;20042;-77
2023/07/01 10:48:39;;;;;;;2.97;1.73;;;;;;;;;;4989076;28;20064;-80
2023/07/01 10:51:06;;;;;;;4.20;1.95;;;;;;;;;;4985100;28;20605;-79
2023/07/01 10:53:57;;;;;;;2.78;1.75;;;;;;;;;;4972526;28;20408;-79
2023/07/01 10:56:22;;;;;;;2.65;2.00;;;;;;;;;;4931650;28;20528;-78
2023/07/01 10:59:16;;;;;;;5.82;2.00;;;;;;;;;;4963348;28;20178;-80
2023/07/01 11:01:47;;;;;;;3.80;1.92;;;;;;;;;;4973758;28;20042;-80
2023/07/01 11:04:13;;;;;;;;;;;;;;;;;;4978499;28;20860;-78
2023/07/01 11:06:52;;;;;;;1.67;1.50;;;;;;;;;;4991832;28;19941;-78
2023/07/01 11:09:32;;;;;;;2.92;1.90;;;;;;;;;;4941941;28;20053;-79
2023/07/01 11:11:59;;;;;;;;;;;;;;;;;;4978293;28;20043;-80
2023/07/01 11:14:36;;;;;;;2.42;1.77;;;;;;;;;;4966107;28;19944;-77
2023/07/01 11:17:05;;;;;;;3.40;1.73;;;;;;;;;;4972826;28;20406;-78
2023/07/01 11:19:31;;;;;;;1.90;1.70;;;;;;;;;;4981444;28;20054;-79
2023/07/01 11:21:56;;;;;;;1.83;1.60;;;;;;;;;;4983870;28;20438;-79
2023/07/01 11:24:23;;;;;;;2.30;1.63;;;;;;;;;;4985925;28;20124;-80
2023/07/01 11:26:50;;;;;;;3.53;1.98;;;;;;;;;;4985429;28;20042;-78
2023/07/01 11:29:18;;;;;;;2.88;1.45;;;;;;;;;;4995008;28;20100;-77
2023/07/01 11:31:43;;;;;;;3.80;1.85;;;;;;;;;;4984716;28;20080;-78
2023/07/01 11:34:15;;;;;;;2.45;1.60;;;;;;;;;;4960799;28;20078;-79
2023/07/01 11:36:44;;;;;;;4.70;2.47;;;;;;;;;;4968237;28;20733;-79
2023/07/01 11:39:17;;;;;;;4.15;1.83;;;;;;;;;;4976100;28;20739;-79
2023/07/01 11:41:51;;;;;;;3.90;1.98;;;;;;;;;;4987592;28;20098;-79
2023/07/01 11:44:19;;;;;;;3.83;2.10;;;;;;;;;;4969195;28;20136;-76
2023/07/01 11:46:46;;;;;;;2.67;2.20;;;;;;;;;;4982639;28;20499;-79
2023/07/01 11:49:24;;;;;;;3.72;2.20;;;;;;;;;;4972158;28;20031;-79
2023/07/01 11:51:52;;;;;;;8.85;2.78;;;;;;;;;;4994506;28;20048;-80
2023/07/01 11:54:19;;;;;;;7.10;2.30;;;;;;;;;;4981794;28;20049;-80
2023/07/01 11:56:46;;;;;;;9.05;2.67;;;;;;;;;;4966602;28;20050;-76
2023/07/01 11:59:27;;;;;;;4.47;2.50;;;;;;;;;;4980287;28;20046;-76
2023/07/01 12:01:53;;;;;;;3.33;1.90;;;;;;;;;;4974686;28;20073;-79
2023/07/01 12:04:18;;;;;;;3.63;1.73;;;;;;;;;;4980544;28;20522;-80
2023/07/01 12:06:44;;;;;;;23.95;5.82;;;;;;;;;;4972024;28;20042;-77
2023/07/01 12:09:09;;;;;;;2.58;1.70;;;;;;;;;;4968896;23;20575;-72
2023/07/01 12:11:46;;;;;;;2.33;1.70;;;;;;;;;;4952189;28;20019;-72
2023/07/01 12:14:19;;;;;;;5.25;2.38;;;;;;;;;;4946669;28;20380;-72
2023/07/01 12:16:47;;;;;;;2.75;1.95;;;;;;;;;;4947346;28;20399;-72
2023/07/01 12:19:14;;;;;;;2.05;1.75;;;;;;;;;;4955206;28;20022;-72
2023/07/01 12:21:40;;;;;;;2.03;1.70;;;;;;;;;;4946119;28;20122;-72
2023/07/01 12:24:19;;;;;;;4.10;2.30;;;;;;;;;;4959477;28;20031;-72
2023/07/01 12:26:49;;;;;;;3.75;2.08;;;;;;;;;;4952948;28;20026;-72
2023/07/01 12:29:15;;;;;;;2.08;1.85;;;;;;;;;;4944726;28;20953;-73
2023/07/01 12:31:41;;;;;;;1.67;1.55;;;;;;;;;;4948565;28;20078;-72
2023/07/01 12:34:06;;;;;;;1.92;1.73;;;;;;;;;;4952158;28;20407;-73
2023/07/01 12:36:33;;;;;;;1.70;1.60;;;;;;;;;;4957376;28;20078;-72
2023/07/01 12:38:59;;;;;;;2.85;1.80;;;;;;;;;;4947747;28;20027;-72
2023/07/01 12:41:29;;;;;;;1.65;1.40;;;;;;;;;;4950927;28;20035;-72
2023/07/01 12:43:55;;;;;;;2.00;1.77;;;;;;;;;;4941895;28;20058;-73
2023/07/01 12:46:20;;;;;;;3.15;1.65;;;;;;;;;;4962371;28;20507;-72
2023/07/01 12:48:46;;;;;;;3.70;2.10;;;;;;;;;;4950413;28;20475;-73
2023/07/01 12:51:11;;;;;;;1.80;1.40;;;;;;;;;;4947967;28;20038;-72
2023/07/01 12:53:36;;;;;;;2.25;1.88;;;;;;;;;;4947324;28;20407;-73
2023/07/01 12:56:02;;;;;;;2.35;1.40;;;;;;;;;;4954364;28;20047;-72
2023/07/01 12:58:27;;;;;;;2.35;1.83;;;;;;;;;;4954941;28;20524;-72
2023/07/01 13:00:53;;;;;;;5.45;1.77;;;;;;;;;;4953534;28;20083;-73
2023/07/01 13:03:18;;;;;;;1.55;1.45;;;;;;;;;;4949360;28;20031;-72
2023/07/01 13:05:43;;;;;;;1.48;1.35;;;;;;;;;;4946305;28;20027;-72
2023/07/01 13:08:11;;;;;;;2.58;1.70;;;;;;;;;;4939368;28;20034;-72
2023/07/01 13:10:42;;;;;;;3.90;1.55;;;;;;;;;;4946968;28;20046;-73
2023/07/01 13:13:08;;;;;;;2.90;1.75;;;;;;;;;;4944290;28;20015;-72
2023/07/01 13:15:35;;;;;;;1.65;1.50;;;;;;;;;;4950579;28;20031;-72
2023/07/01 13:18:04;;;;;;;3.42;1.50;;;;;;;;;;4953858;28;20409;-72
2023/07/01 13:20:29;;;;;;;2.55;1.40;;;;;;;;;;4951792;28;20027;-72
2023/07/01 13:22:56;;;;;;;2.42;1.42;;;;;;;;;;4942628;28;20027;-72
2023/07/01 13:25:23;;;;;;;2.45;1.60;;;;;;;;;;4941294;28;20413;-72
2023/07/01 13:27:50;;;;;;;1.83;1.42;;;;;;;;;;4943292;28;20085;-72
2023/07/01 13:30:40;;;;;;;1.50;1.40;;;;;;;;;;4943022;28;20039;-72
2023/07/01 13:33:06;;;;;;;1.20;1.10;;;;;;;;;;4944815;28;20435;-72
2023/07/01 13:35:34;;;;;;;1.60;1.50;;;;;;;;;;4947494;28;20069;-72
2023/07/01 13:38:09;;;;;;;1.85;1.30;;;;;;;;;;4934515;28;20046;-72
2023/07/01 13:40:43;;;;;;;2.13;1.60;;;;;;;;;;4949113;28;20110;-72
2023/07/01 13:43:18;;;;;;;1.30;1.20;;;;;;;;;;4946897;28;20024;-72
2023/07/01 13:45:44;;;;;;;1.27;1.17;;;;;;;;;;4942050;28;20081;-73
2023/07/01 13:48:24;;;;;;;1.50;1.40;;;;;;;;;;4945465;28;20425;-72
2023/07/01 13:50:52;;;;;;;2.33;1.70;;;;;;;;;;4947896;28;20040;-73
2023/07/01 13:53:19;;;;;;;1.95;1.40;;;;;;;;;;4951174;28;20067;-73
2023/07/01 13:55:47;;;;;;;1.95;1.42;;;;;;;;;;4951111;28;20476;-72
2023/07/01 13:58:13;;;;;;;1.73;1.20;;;;;;;;;;4945019;28;20038;-72
2023/07/01 14:00:42;;;;;;;3.28;1.60;;;;;;;;;;4947816;28;20407;-73
2023/07/01 14:03:12;;;;;;;1.67;1.45;;;;;;;;;;4948356;28;20536;-72
2023/07/01 14:05:39;;;;;;;1.83;1.50;;;;;;;;;;4947043;28;20543;-72
2023/07/01 14:08:06;;;;;;;1.63;1.52;;;;;;;;;;4945586;28;20035;-72
2023/07/01 14:10:35;;;;;;;2.60;1.80;;;;;;;;;;4948136;28;20027;-72
2023/07/01 14:13:06;;;;;;;2.00;1.25;;;;;;;;;;4945207;28;20022;-72
2023/07/01 14:15:33;;;;;;;4.72;1.55;;;;;;;;;;4952929;28;20571;-72
2023/07/01 14:17:59;;;;;;;1.92;1.50;;;;;;;;;;4953405;28;20114;-72
2023/07/01 14:20:24;;;;;;;4.88;1.90;;;;;;;;;;4947570;28;20110;-72
2023/07/01 14:22:59;;;;;;;1.60;1.50;;;;;;;;;;4948164;28;20038;-72
2023/07/01 14:25:32;;;;;;;5.22;1.75;;;;;;;;;;4955979;28;20112;-72
2023/07/01 14:28:00;;;;;;;2.15;1.42;;;;;;;;;;4953885;28;20042;-72
2023/07/01 14:30:47;;;;;;;1.77;1.40;;;;;;;;;;4956506;28;20506;-72
2023/07/01 14:33:16;;;;;;;1.85;1.70;;;;;;;;;;4951722;28;20055;-72
2023/07/01 14:35:41;;;;;;;1.83;1.50;;;;;;;;;;4961740;28;20133;-73
2023/07/01 14:38:06;;;;;;;2.88;1.90;;;;;;;;;;4949791;28;20477;-72
2023/07/01 14:40:35;;;;;;;3.30;1.85;;;;;;;;;;4950340;28;20030;-72
2023/07/01 14:43:08;;;;;;;2.15;1.58;;;;;;;;;;4946684;28;20024;-72
2023/07/01 14:45:33;;;;;;;1.50;1.38;;;;;;;;;;4951460;28;20541;-72